Time;durP1;ratioP1;P1;durP2;ratioP2;P2;SDS_P1;SDS_P2;PMS_P1;PMS_P2;Temp;Humidity;BMP_temperature;BMP_pressure;BME280_temperature;BME280_humidity;BME280_pressure;Samples;Min_cycle;Max_cycle;Signal;HPM_P1;HPM_P2
2022/05/18 00:00:09;;;;;;;3.60;1.50;;;;;;;;;;4178121;34;20145;-65
2022/05/18 00:02:36;;;;;;;2.87;1.80;;;;;;;;;;4178330;34;20213;-65
2022/05/18 00:33:30;;;;;;;1.30;1.20;;;;;;;;;;4611847;28;20073;-58
2022/05/18 00:35:57;;;;;;;2.70;1.23;;;;;;;;;;4161408;34;20194;-58
2022/05/18 00:38:23;;;;;;;2.75;1.20;;;;;;;;;;4164124;34;20210;-59
2022/05/18 00:40:49;;;;;;;3.20;1.50;;;;;;;;;;4164162;34;20092;-60
2022/05/18 00:43:39;;;;;;;3.78;2.15;;;;;;;;;;4164180;34;20543;-66
2022/05/18 00:46:08;;;;;;;1.45;1.30;;;;;;;;;;4164159;34;20102;-60
2022/05/18 00:48:34;;;;;;;4.10;1.40;;;;;;;;;;4151838;34;20561;-61
2022/05/18 00:51:02;;;;;;;3.53;2.00;;;;;;;;;;4151598;34;20183;-61
2022/05/18 00:53:35;;;;;;;3.60;1.33;;;;;;;;;;4164177;34;20099;-61
2022/05/18 00:56:05;;;;;;;2.08;1.27;;;;;;;;;;4151672;34;20532;-60
2022/05/18 00:58:39;;;;;;;3.45;1.35;;;;;;;;;;4151712;34;20552;-66
2022/05/18 01:01:07;;;;;;;1.58;1.40;;;;;;;;;;4164026;34;20118;-66
2022/05/18 01:03:40;;;;;;;3.47;1.25;;;;;;;;;;4151805;34;20198;-66
2022/05/18 01:06:10;;;;;;;2.17;1.30;;;;;;;;;;4164014;34;20126;-67
2022/05/18 01:08:42;;;;;;;2.45;1.40;;;;;;;;;;4151141;34;20518;-67
2022/05/18 01:11:08;;;;;;;2.17;1.42;;;;;;;;;;4151216;34;20211;-60
2022/05/18 01:13:34;;;;;;;3.05;1.50;;;;;;;;;;4163985;34;20106;-61
2022/05/18 01:15:59;;;;;;;3.75;1.40;;;;;;;;;;4163833;34;20103;-61
2022/05/18 01:18:25;;;;;;;1.73;1.30;;;;;;;;;;4164207;34;20087;-61
2022/05/18 01:20:52;;;;;;;1.40;1.30;;;;;;;;;;4164103;34;20111;-61
2022/05/18 01:23:56;;;;;;;4.55;1.52;;;;;;;;;;4164150;34;20114;-61
2022/05/18 01:26:36;;;;;;;2.92;1.50;;;;;;;;;;4163978;34;20122;-60
2022/05/18 01:29:05;;;;;;;5.47;1.62;;;;;;;;;;4163729;34;20091;-60
2022/05/18 01:31:52;;;;;;;4.55;1.37;;;;;;;;;;4163329;34;20092;-60
2022/05/18 01:34:20;;;;;;;1.50;1.40;;;;;;;;;;4163581;34;20448;-60
2022/05/18 01:36:47;;;;;;;2.20;1.50;;;;;;;;;;4163979;34;20157;-60
2022/05/18 01:39:24;;;;;;;1.87;1.60;;;;;;;;;;4163934;34;20134;-60
2022/05/18 01:42:04;;;;;;;5.55;1.58;;;;;;;;;;4151116;34;20540;-60
2022/05/18 01:44:30;;;;;;;1.45;1.27;;;;;;;;;;4151105;34;20470;-60
2022/05/18 01:46:56;;;;;;;3.97;1.45;;;;;;;;;;4163592;34;20471;-61
2022/05/18 01:49:22;;;;;;;7.15;1.60;;;;;;;;;;4163423;34;20117;-60
2022/05/18 01:51:51;;;;;;;3.03;1.40;;;;;;;;;;4163671;34;20578;-60
2022/05/18 01:54:17;;;;;;;2.15;1.35;;;;;;;;;;4151246;34;20114;-61
2022/05/18 01:56:43;;;;;;;2.47;1.50;;;;;;;;;;4163619;34;20459;-60
2022/05/18 01:59:09;;;;;;;3.12;1.37;;;;;;;;;;4163934;34;20150;-60
2022/05/18 02:01:35;;;;;;;3.83;1.50;;;;;;;;;;4163734;34;20126;-60
2022/05/18 02:04:02;;;;;;;2.25;1.40;;;;;;;;;;4163635;34;20109;-60
2022/05/18 02:06:29;;;;;;;6.55;1.30;;;;;;;;;;4163337;34;20613;-60
2022/05/18 02:08:56;;;;;;;3.28;1.50;;;;;;;;;;4163443;34;20519;-61
2022/05/18 02:11:22;;;;;;;2.03;1.30;;;;;;;;;;4163424;34;20122;-60
2022/05/18 02:13:51;;;;;;;3.22;1.42;;;;;;;;;;4163756;34;20114;-60
2022/05/18 02:16:17;;;;;;;2.85;1.30;;;;;;;;;;4163338;34;20111;-60
2022/05/18 02:18:43;;;;;;;4.07;1.35;;;;;;;;;;4163338;34;20198;-60
2022/05/18 02:21:10;;;;;;;2.40;1.37;;;;;;;;;;4163177;34;20121;-60
2022/05/18 02:23:37;;;;;;;1.92;1.40;;;;;;;;;;4163367;34;20523;-60
2022/05/18 02:26:19;;;;;;;8.10;1.98;;;;;;;;;;4163450;34;20106;-60
2022/05/18 02:28:46;;;;;;;4.72;1.60;;;;;;;;;;4163251;34;20114;-60
2022/05/18 02:31:12;;;;;;;4.53;1.48;;;;;;;;;;4163277;34;20111;-61
2022/05/18 02:33:38;;;;;;;9.80;1.80;;;;;;;;;;4162992;34;20141;-61
2022/05/18 02:36:06;;;;;;;5.85;1.80;;;;;;;;;;4163029;34;20645;-58
2022/05/18 02:38:32;;;;;;;2.40;1.37;;;;;;;;;;4163046;34;20217;-58
2022/05/18 02:40:59;;;;;;;1.98;1.40;;;;;;;;;;4162453;34;20124;-60
2022/05/18 02:43:26;;;;;;;2.83;1.20;;;;;;;;;;4163225;34;20613;-63
2022/05/18 02:46:21;;;;;;;8.30;1.75;;;;;;;;;;4163180;34;20098;-62
2022/05/18 02:48:48;;;;;;;1.70;1.47;;;;;;;;;;4154202;34;20646;-63
2022/05/18 02:51:15;;;;;;;1.62;1.45;;;;;;;;;;4163040;34;20202;-63
2022/05/18 02:53:42;;;;;;;7.15;1.87;;;;;;;;;;4163286;34;20133;-63
2022/05/18 02:56:11;;;;;;;3.72;1.50;;;;;;;;;;4163060;34;20137;-62
2022/05/18 02:58:46;;;;;;;5.07;1.45;;;;;;;;;;4162970;34;20203;-62
2022/05/18 03:01:14;;;;;;;2.45;1.30;;;;;;;;;;4163008;34;20114;-61
2022/05/18 03:03:40;;;;;;;3.03;1.40;;;;;;;;;;4162875;34;20134;-62
2022/05/18 03:06:08;;;;;;;3.80;2.03;;;;;;;;;;4150153;34;20098;-62
2022/05/18 03:08:36;;;;;;;4.00;1.20;;;;;;;;;;4150155;34;20114;-63
2022/05/18 03:11:03;;;;;;;2.58;1.35;;;;;;;;;;4163026;34;20122;-62
2022/05/18 03:13:29;;;;;;;2.78;1.83;;;;;;;;;;4163012;34;20115;-62
2022/05/18 03:15:55;;;;;;;2.70;1.50;;;;;;;;;;4150294;34;20207;-62
2022/05/18 03:18:22;;;;;;;1.80;1.35;;;;;;;;;;4162842;34;20544;-62
2022/05/18 03:23:35;;;;;;;1.30;1.20;;;;;;;;;;4162690;34;20143;-62
2022/05/18 03:26:06;;;;;;;7.62;1.50;;;;;;;;;;4162576;34;20098;-62
2022/05/18 03:28:33;;;;;;;2.47;1.30;;;;;;;;;;4150052;34;20150;-62
2022/05/18 03:30:59;;;;;;;4.60;3.03;;;;;;;;;;4162581;34;20138;-61
2022/05/18 03:33:25;;;;;;;3.12;1.48;;;;;;;;;;4162596;34;20114;-62
2022/05/18 03:35:51;;;;;;;11.75;1.90;;;;;;;;;;4162465;34;20099;-61
2022/05/18 03:38:19;;;;;;;5.25;1.60;;;;;;;;;;4162711;34;20616;-62
2022/05/18 03:40:45;;;;;;;2.95;1.40;;;;;;;;;;4162414;34;20118;-61
2022/05/18 03:43:11;;;;;;;3.40;1.20;;;;;;;;;;4162611;34;20106;-59
2022/05/18 03:45:38;;;;;;;3.50;1.20;;;;;;;;;;4162575;34;20195;-62
2022/05/18 03:48:05;;;;;;;3.40;1.50;;;;;;;;;;4162618;34;20110;-61
2022/05/18 03:50:31;;;;;;;1.55;1.37;;;;;;;;;;4163030;34;20149;-61
2022/05/18 03:52:57;;;;;;;4.53;1.62;;;;;;;;;;4151789;34;20629;-62
2022/05/18 03:55:25;;;;;;;6.72;1.80;;;;;;;;;;4164634;34;20111;-62
2022/05/18 03:57:51;;;;;;;3.15;1.20;;;;;;;;;;4164450;34;20451;-62
2022/05/18 04:00:17;;;;;;;3.85;1.70;;;;;;;;;;4164477;34;20110;-61
2022/05/18 04:02:44;;;;;;;3.30;1.48;;;;;;;;;;4164409;34;20133;-61
2022/05/18 04:05:11;;;;;;;6.62;2.12;;;;;;;;;;4164363;34;20138;-61
2022/05/18 04:07:37;;;;;;;5.12;1.70;;;;;;;;;;4164568;34;20133;-61
2022/05/18 04:10:03;;;;;;;2.10;1.45;;;;;;;;;;4164351;34;20546;-62
2022/05/18 04:12:29;;;;;;;6.10;2.85;;;;;;;;;;4164233;34;20133;-63
2022/05/18 04:14:56;;;;;;;7.32;2.28;;;;;;;;;;4164104;34;20598;-60
2022/05/18 04:17:22;;;;;;;6.47;1.73;;;;;;;;;;4164275;34;20513;-60
2022/05/18 04:19:48;;;;;;;7.65;1.50;;;;;;;;;;4163653;34;20121;-60
2022/05/18 04:22:14;;;;;;;6.45;1.90;;;;;;;;;;4164100;34;20515;-60
2022/05/18 04:24:40;;;;;;;2.50;1.65;;;;;;;;;;4164239;34;20199;-60
2022/05/18 04:27:06;;;;;;;3.35;1.62;;;;;;;;;;4164246;34;20086;-59
2022/05/18 04:29:32;;;;;;;4.28;1.58;;;;;;;;;;4164348;34;20573;-60
2022/05/18 04:31:58;;;;;;;6.00;2.42;;;;;;;;;;4164241;34;20119;-62
2022/05/18 04:34:25;;;;;;;5.57;1.62;;;;;;;;;;4151329;34;20499;-61
2022/05/18 04:36:51;;;;;;;4.82;1.87;;;;;;;;;;4164260;34;20105;-62
2022/05/18 04:39:17;;;;;;;9.13;2.78;;;;;;;;;;4164198;34;20107;-61
2022/05/18 04:41:43;;;;;;;4.53;2.00;;;;;;;;;;4164056;34;20127;-62
2022/05/18 04:44:10;;;;;;;5.82;2.40;;;;;;;;;;4164346;34;20112;-62
2022/05/18 04:46:36;;;;;;;10.60;2.55;;;;;;;;;;4164048;34;20443;-61
2022/05/18 04:49:02;;;;;;;7.22;1.75;;;;;;;;;;4164262;34;20118;-62
2022/05/18 04:51:28;;;;;;;7.35;2.10;;;;;;;;;;4151671;34;20103;-62
2022/05/18 04:53:54;;;;;;;5.15;1.75;;;;;;;;;;4164328;34;20091;-62
2022/05/18 04:56:20;;;;;;;3.60;2.00;;;;;;;;;;4164020;34;20118;-62
2022/05/18 04:58:46;;;;;;;5.53;2.00;;;;;;;;;;4151305;34;20122;-61
2022/05/18 05:01:12;;;;;;;3.20;1.70;;;;;;;;;;4164207;34;20194;-61
2022/05/18 05:03:38;;;;;;;5.35;2.00;;;;;;;;;;4163688;34;20194;-61
2022/05/18 05:06:05;;;;;;;3.10;1.65;;;;;;;;;;4163855;34;20106;-59
2022/05/18 05:08:34;;;;;;;5.45;1.62;;;;;;;;;;4151512;34;20099;-61
2022/05/18 05:11:00;;;;;;;4.97;1.95;;;;;;;;;;4163898;34;20115;-63
2022/05/18 05:13:26;;;;;;;8.32;2.30;;;;;;;;;;4151443;34;20103;-63
2022/05/18 05:16:00;;;;;;;5.45;2.60;;;;;;;;;;4151221;34;20194;-63
2022/05/18 05:18:26;;;;;;;9.00;4.15;;;;;;;;;;4151278;34;20125;-63
2022/05/18 05:20:52;;;;;;;13.30;2.50;;;;;;;;;;4163756;34;20516;-63
2022/05/18 05:23:20;;;;;;;6.40;2.62;;;;;;;;;;4163997;34;20111;-63
2022/05/18 05:25:46;;;;;;;6.78;2.53;;;;;;;;;;4163636;34;20103;-63
2022/05/18 05:28:12;;;;;;;6.00;2.20;;;;;;;;;;4163891;34;20134;-63
2022/05/18 05:30:40;;;;;;;3.25;2.17;;;;;;;;;;4151335;34;20436;-62
2022/05/18 05:33:06;;;;;;;2.42;1.50;;;;;;;;;;4163754;34;20189;-63
2022/05/18 05:35:32;;;;;;;2.42;1.60;;;;;;;;;;4163927;34;20126;-63
2022/05/18 05:37:58;;;;;;;4.05;2.25;;;;;;;;;;4151409;34;20118;-63
2022/05/18 05:40:24;;;;;;;3.45;1.70;;;;;;;;;;4163960;34;20194;-63
2022/05/18 05:42:50;;;;;;;3.30;1.80;;;;;;;;;;4163844;34;20118;-62
2022/05/18 05:45:16;;;;;;;2.35;1.90;;;;;;;;;;4151156;34;20214;-62
2022/05/18 05:47:42;;;;;;;2.17;1.70;;;;;;;;;;4163488;34;20187;-62
2022/05/18 05:50:08;;;;;;;2.42;1.45;;;;;;;;;;4163575;34;20218;-63
2022/05/18 05:52:34;;;;;;;3.45;1.42;;;;;;;;;;4163495;34;20121;-64
2022/05/18 05:55:00;;;;;;;3.72;1.95;;;;;;;;;;4163534;34;20099;-63
2022/05/18 05:57:27;;;;;;;5.07;2.42;;;;;;;;;;4139644;34;20095;-64
2022/05/18 05:59:53;;;;;;;3.25;1.90;;;;;;;;;;4150758;34;20103;-62
2022/05/18 06:02:19;;;;;;;5.05;2.10;;;;;;;;;;4151093;34;20489;-63
2022/05/18 06:04:46;;;;;;;4.78;2.50;;;;;;;;;;4163354;34;20114;-63
2022/05/18 06:07:13;;;;;;;7.78;2.47;;;;;;;;;;4163318;34;20106;-63
2022/05/18 06:09:39;;;;;;;4.05;2.35;;;;;;;;;;4163338;34;20114;-63
2022/05/18 06:12:06;;;;;;;5.93;2.58;;;;;;;;;;4163561;34;20103;-62
2022/05/18 06:14:32;;;;;;;7.07;2.37;;;;;;;;;;4149980;34;20094;-63
2022/05/18 06:16:58;;;;;;;4.87;2.72;;;;;;;;;;4150724;34;20122;-63
2022/05/18 06:19:24;;;;;;;3.05;2.20;;;;;;;;;;4163750;34;20507;-61
2022/05/18 06:21:50;;;;;;;3.50;2.15;;;;;;;;;;4150719;34;20103;-62
2022/05/18 06:24:18;;;;;;;2.70;1.67;;;;;;;;;;4163329;34;20177;-63
2022/05/18 06:26:44;;;;;;;2.78;1.70;;;;;;;;;;4163066;34;20215;-61
2022/05/18 06:29:10;;;;;;;5.37;1.77;;;;;;;;;;4163671;34;20130;-61
2022/05/18 06:31:36;;;;;;;4.20;1.58;;;;;;;;;;4163413;34;20121;-62
2022/05/18 06:34:02;;;;;;;1.70;1.60;;;;;;;;;;4163261;34;20463;-64
2022/05/18 06:36:30;;;;;;;2.10;1.65;;;;;;;;;;4163267;34;20089;-61
2022/05/18 06:38:56;;;;;;;3.87;1.77;;;;;;;;;;4163100;34;20152;-62
2022/05/18 06:41:22;;;;;;;3.90;1.50;;;;;;;;;;4163091;34;20197;-61
2022/05/18 06:43:56;;;;;;;1.98;1.70;;;;;;;;;;4163033;34;20540;-62
2022/05/18 06:46:24;;;;;;;4.30;1.50;;;;;;;;;;4150473;34;20110;-61
2022/05/18 06:48:50;;;;;;;7.15;1.50;;;;;;;;;;4163042;34;20110;-62
2022/05/18 06:51:19;;;;;;;4.45;1.70;;;;;;;;;;4163045;34;20325;-62
2022/05/18 06:53:46;;;;;;;7.15;1.60;;;;;;;;;;4150379;34;20554;-62
2022/05/18 06:56:12;;;;;;;2.37;1.50;;;;;;;;;;4163201;34;20196;-61
2022/05/18 06:58:38;;;;;;;1.30;1.20;;;;;;;;;;4163069;34;20118;-63
2022/05/18 07:01:07;;;;;;;5.07;1.50;;;;;;;;;;4162938;34;20138;-62
2022/05/18 07:03:33;;;;;;;4.90;1.48;;;;;;;;;;4162745;34;20130;-62
2022/05/18 07:05:59;;;;;;;2.03;1.40;;;;;;;;;;4162881;34;20127;-62
2022/05/18 07:08:25;;;;;;;4.97;1.50;;;;;;;;;;4162867;34;20094;-61
2022/05/18 07:10:51;;;;;;;3.28;1.25;;;;;;;;;;4150205;34;20125;-62
2022/05/18 07:13:17;;;;;;;3.35;1.30;;;;;;;;;;4162739;34;20103;-62
2022/05/18 07:15:44;;;;;;;2.05;1.42;;;;;;;;;;4162954;34;20099;-61
2022/05/18 07:18:10;;;;;;;1.70;1.23;;;;;;;;;;4162893;34;20121;-63
2022/05/18 07:20:36;;;;;;;1.83;1.30;;;;;;;;;;4150095;34;20125;-63
2022/05/18 07:23:02;;;;;;;1.33;1.23;;;;;;;;;;4162805;34;20126;-64
2022/05/18 07:25:28;;;;;;;6.72;1.52;;;;;;;;;;4163123;34;20206;-63
2022/05/18 07:27:54;;;;;;;1.95;1.33;;;;;;;;;;4165005;34;20435;-63
2022/05/18 07:30:20;;;;;;;3.20;1.60;;;;;;;;;;4165047;34;20106;-62
2022/05/18 07:32:46;;;;;;;6.62;1.65;;;;;;;;;;4164855;34;20117;-63
2022/05/18 07:35:12;;;;;;;2.35;1.77;;;;;;;;;;4164820;34;20090;-64
2022/05/18 07:37:38;;;;;;;3.05;1.50;;;;;;;;;;4164658;34;20207;-62
2022/05/18 07:40:06;;;;;;;2.05;1.30;;;;;;;;;;4152143;34;20125;-62
2022/05/18 07:42:33;;;;;;;2.47;1.60;;;;;;;;;;4164578;34;20126;-62
2022/05/18 07:44:59;;;;;;;2.58;1.33;;;;;;;;;;4164493;34;20130;-62
2022/05/18 07:47:32;;;;;;;11.95;1.67;;;;;;;;;;4164789;34;20126;-63
2022/05/18 07:49:58;;;;;;;3.08;1.30;;;;;;;;;;4164610;34;20190;-62
2022/05/18 07:52:25;;;;;;;1.33;1.20;;;;;;;;;;4164615;34;20118;-63
2022/05/18 07:54:51;;;;;;;5.37;1.60;;;;;;;;;;4164632;34;20130;-63
2022/05/18 07:57:17;;;;;;;5.07;1.48;;;;;;;;;;4140965;34;20130;-63
2022/05/18 07:59:44;;;;;;;4.35;1.40;;;;;;;;;;4164358;34;20198;-62
2022/05/18 08:02:10;;;;;;;1.65;1.20;;;;;;;;;;4164798;34;20115;-62
2022/05/18 08:04:36;;;;;;;3.70;1.50;;;;;;;;;;4164602;34;20206;-61
2022/05/18 08:07:02;;;;;;;1.20;1.12;;;;;;;;;;4164567;34;20523;-60
2022/05/18 08:09:28;;;;;;;2.90;1.50;;;;;;;;;;4151577;34;20554;-61
2022/05/18 08:17:24;;;;;;;2.97;1.20;;;;;;;;;;4164407;34;20612;-60
2022/05/18 08:19:50;;;;;;;6.20;1.42;;;;;;;;;;4164602;34;20110;-61
2022/05/18 08:22:17;;;;;;;4.12;1.50;;;;;;;;;;4164333;34;20091;-61
2022/05/18 08:24:43;;;;;;;2.58;1.45;;;;;;;;;;4151609;34;20185;-61
2022/05/18 08:27:15;;;;;;;3.20;1.50;;;;;;;;;;4164467;34;20214;-61
2022/05/18 08:29:41;;;;;;;4.07;1.65;;;;;;;;;;4164514;34;20130;-60
2022/05/18 08:32:07;;;;;;;1.65;1.25;;;;;;;;;;4140396;34;20558;-61
2022/05/18 08:34:33;;;;;;;4.32;1.20;;;;;;;;;;4164295;34;20164;-61
2022/05/18 08:37:00;;;;;;;2.35;1.10;;;;;;;;;;4163576;34;20115;-61
2022/05/18 08:39:27;;;;;;;2.12;1.30;;;;;;;;;;4164286;34;20134;-61
2022/05/18 08:41:53;;;;;;;2.25;1.45;;;;;;;;;;4163985;34;20190;-61
2022/05/18 08:44:28;;;;;;;5.47;1.60;;;;;;;;;;4164364;34;20213;-60
2022/05/18 08:47:05;;;;;;;5.45;1.65;;;;;;;;;;4151750;34;20111;-61
2022/05/18 08:49:42;;;;;;;9.52;3.05;;;;;;;;;;4164329;34;20107;-61
2022/05/18 08:52:27;;;;;;;2.25;1.30;;;;;;;;;;4164068;34;20110;-61
2022/05/18 08:55:41;;;;;;;3.83;1.30;;;;;;;;;;4164284;34;20110;-61
2022/05/18 08:58:15;;;;;;;1.25;1.20;;;;;;;;;;4141965;34;20204;-60
2022/05/18 09:00:46;;;;;;;1.17;1.10;;;;;;;;;;4151698;34;20122;-61
2022/05/18 09:03:12;;;;;;;1.25;1.17;;;;;;;;;;4151220;34;20221;-61
2022/05/18 09:05:50;;;;;;;6.90;2.55;;;;;;;;;;4163917;34;20233;-61
2022/05/18 09:08:21;;;;;;;2.33;1.25;;;;;;;;;;4151429;34;20202;-61
2022/05/18 09:10:55;;;;;;;1.83;1.15;;;;;;;;;;4163986;34;20194;-61
2022/05/18 09:13:21;;;;;;;2.65;1.50;;;;;;;;;;4151163;34;20110;-61
2022/05/18 09:15:59;;;;;;;1.30;1.20;;;;;;;;;;4163948;34;20103;-61
2022/05/18 09:18:35;;;;;;;3.50;1.10;;;;;;;;;;4163987;34;20551;-61
2022/05/18 09:21:11;;;;;;;2.58;1.50;;;;;;;;;;4151483;34;20207;-61
2022/05/18 09:24:16;;;;;;;1.00;1.00;;;;;;;;;;4151568;34;20095;-61
2022/05/18 09:27:17;;;;;;;6.43;1.55;;;;;;;;;;4152774;34;20123;-60
2022/05/18 09:29:49;;;;;;;1.10;1.00;;;;;;;;;;4163623;34;20110;-61
2022/05/18 09:32:35;;;;;;;2.83;1.30;;;;;;;;;;4163735;34;20471;-60
2022/05/18 09:35:19;;;;;;;1.40;1.30;;;;;;;;;;4163179;34;20533;-61
2022/05/18 09:37:49;;;;;;;3.08;1.83;;;;;;;;;;4163329;34;20117;-61
2022/05/18 09:40:23;;;;;;;1.67;1.50;;;;;;;;;;4163268;34;20455;-62
2022/05/18 09:43:00;;;;;;;1.80;1.50;;;;;;;;;;4162866;34;20130;-58
2022/05/18 09:45:29;;;;;;;7.43;1.60;;;;;;;;;;4163551;34;20126;-60
2022/05/18 09:48:15;;;;;;;6.90;1.65;;;;;;;;;;4163517;34;20111;-60
2022/05/18 09:50:44;;;;;;;6.07;1.73;;;;;;;;;;4151304;34;20526;-61
2022/05/18 09:53:10;;;;;;;6.70;1.58;;;;;;;;;;4163455;34;20126;-61
2022/05/18 09:55:37;;;;;;;3.35;1.40;;;;;;;;;;4151213;34;20598;-60
2022/05/18 09:58:03;;;;;;;1.70;1.33;;;;;;;;;;4163702;34;20111;-61
2022/05/18 10:00:31;;;;;;;1.40;1.30;;;;;;;;;;4163797;34;20130;-61
2022/05/18 10:08:45;;;;;;;1.60;1.50;;;;;;;;;;4163538;34;20125;-61
2022/05/18 10:11:17;;;;;;;4.30;1.90;;;;;;;;;;4150955;34;20095;-60
2022/05/18 10:13:54;;;;;;;1.48;1.37;;;;;;;;;;4150651;34;20107;-60
2022/05/18 10:16:40;;;;;;;3.12;2.00;;;;;;;;;;4163572;34;20125;-59
2022/05/18 10:19:14;;;;;;;2.45;1.95;;;;;;;;;;4163458;34;20201;-60
2022/05/18 10:21:51;;;;;;;2.47;1.87;;;;;;;;;;4163363;34;20965;-61
2022/05/18 10:24:46;;;;;;;3.05;1.80;;;;;;;;;;4150823;34;20157;-60
2022/05/18 10:27:39;;;;;;;2.03;1.83;;;;;;;;;;4163156;34;20452;-60
2022/05/18 10:30:31;;;;;;;3.25;2.10;;;;;;;;;;4159297;34;20212;-61
2022/05/18 10:33:03;;;;;;;2.92;2.00;;;;;;;;;;4147600;34;20474;-61
2022/05/18 10:35:41;;;;;;;2.08;1.85;;;;;;;;;;4162853;34;20218;-60
2022/05/18 10:38:23;;;;;;;2.33;2.05;;;;;;;;;;4163388;34;20106;-60
2022/05/18 10:40:52;;;;;;;1.70;1.60;;;;;;;;;;4163102;34;20115;-60
2022/05/18 10:43:35;;;;;;;1.73;1.58;;;;;;;;;;4150540;34;20113;-59
2022/05/18 10:46:04;;;;;;;2.00;1.77;;;;;;;;;;4150746;34;20101;-61
2022/05/18 10:48:31;;;;;;;4.03;1.83;;;;;;;;;;4163449;34;20134;-60
2022/05/18 10:51:09;;;;;;;2.78;1.85;;;;;;;;;;4150336;34;20107;-60
2022/05/18 10:53:41;;;;;;;5.00;3.00;;;;;;;;;;4162842;34;20193;-60
2022/05/18 10:56:10;;;;;;;3.78;2.40;;;;;;;;;;4163118;34;20217;-58
2022/05/18 10:58:40;;;;;;;4.60;2.97;;;;;;;;;;4163073;34;20134;-60
2022/05/18 11:01:12;;;;;;;7.12;3.53;;;;;;;;;;4153116;34;20187;-59
2022/05/18 11:04:00;;;;;;;5.62;3.35;;;;;;;;;;4167217;34;20110;-60
2022/05/18 11:06:37;;;;;;;6.20;3.28;;;;;;;;;;4154933;34;20090;-60
2022/05/18 11:09:06;;;;;;;8.98;3.90;;;;;;;;;;4167451;34;20114;-60
2022/05/18 11:11:36;;;;;;;6.12;2.80;;;;;;;;;;4167251;34;20535;-58
2022/05/18 11:14:16;;;;;;;5.57;2.83;;;;;;;;;;4154892;34;20205;-59
2022/05/18 11:16:57;;;;;;;4.10;2.20;;;;;;;;;;4167297;34;20244;-60
2022/05/18 11:19:32;;;;;;;5.57;2.65;;;;;;;;;;4167071;34;20181;-60
2022/05/18 11:22:23;;;;;;;4.25;2.90;;;;;;;;;;4143592;34;20119;-61
2022/05/18 11:25:10;;;;;;;3.25;2.25;;;;;;;;;;4167156;34;20207;-59
2022/05/18 11:27:42;;;;;;;2.62;1.80;;;;;;;;;;4154645;34;20118;-59
2022/05/18 11:30:17;;;;;;;2.75;1.58;;;;;;;;;;4167194;34;20499;-59
2022/05/18 11:32:58;;;;;;;8.13;4.90;;;;;;;;;;4167121;34;20119;-62
2022/05/18 11:35:52;;;;;;;10.10;4.32;;;;;;;;;;4154602;34;20117;-61
2022/05/18 11:38:38;;;;;;;7.57;3.58;;;;;;;;;;4167413;34;20513;-60
2022/05/18 11:41:34;;;;;;;6.90;3.78;;;;;;;;;;4167189;34;20230;-63
2022/05/18 11:44:04;;;;;;;;;;;;;;;;;;4167523;34;20099;-60
2022/05/18 11:46:39;;;;;;;3.20;2.35;;;;;;;;;;4154311;34;19994;-60
2022/05/18 11:49:10;;;;;;;4.45;2.00;;;;;;;;;;4154281;34;20207;-63
2022/05/18 11:52:07;;;;;;;4.65;1.58;;;;;;;;;;4166945;34;20133;-60
2022/05/18 11:54:42;;;;;;;2.42;1.77;;;;;;;;;;4154142;34;20091;-61
2022/05/18 11:57:27;;;;;;;4.37;2.30;;;;;;;;;;4167078;34;20094;-59
2022/05/18 12:00:00;;;;;;;4.87;2.80;;;;;;;;;;4167086;34;20486;-60
2022/05/18 12:02:52;;;;;;;13.88;5.35;;;;;;;;;;4166868;34;20109;-62
2022/05/18 12:05:26;;;;;;;13.02;5.95;;;;;;;;;;4154117;34;20186;-61
2022/05/18 12:08:31;;;;;;;12.65;5.20;;;;;;;;;;4166728;34;20296;-62
2022/05/18 12:11:26;;;;;;;9.43;5.12;;;;;;;;;;4154337;34;20515;-60
2022/05/18 12:14:07;;;;;;;3.33;2.20;;;;;;;;;;4161447;34;20126;-60
2022/05/18 12:16:44;;;;;;;1.70;1.60;;;;;;;;;;4151861;34;20154;-60
2022/05/18 12:19:15;;;;;;;1.48;1.37;;;;;;;;;;4151892;34;20174;-61
2022/05/18 12:21:45;;;;;;;1.77;1.67;;;;;;;;;;4164571;34;20106;-62
2022/05/18 12:24:12;;;;;;;2.20;1.30;;;;;;;;;;4151893;34;20214;-60
2022/05/18 12:26:42;;;;;;;1.60;1.50;;;;;;;;;;4164442;34;20807;-58
2022/05/18 12:29:09;;;;;;;3.12;1.55;;;;;;;;;;4164161;34;20198;-61
2022/05/18 12:31:35;;;;;;;2.15;1.73;;;;;;;;;;4164170;34;20125;-61
2022/05/18 12:34:18;;;;;;;5.47;1.80;;;;;;;;;;4164220;34;20538;-61
2022/05/18 12:36:45;;;;;;;4.78;1.98;;;;;;;;;;4151463;34;20341;-63
2022/05/18 12:39:18;;;;;;;3.37;1.80;;;;;;;;;;4164557;34;20189;-60
2022/05/18 12:41:54;;;;;;;3.17;1.77;;;;;;;;;;4163665;34;20107;-60
2022/05/18 12:44:37;;;;;;;6.12;1.98;;;;;;;;;;4140380;34;20111;-62
2022/05/18 12:47:31;;;;;;;3.50;1.98;;;;;;;;;;4164016;34;20526;-60
2022/05/18 12:49:58;;;;;;;3.80;1.77;;;;;;;;;;4135889;34;20138;-59
2022/05/18 12:52:33;;;;;;;2.62;1.70;;;;;;;;;;4151250;34;20099;-60
2022/05/18 12:55:30;;;;;;;2.30;1.87;;;;;;;;;;4164041;34;20527;-63
2022/05/18 12:58:11;;;;;;;3.85;1.95;;;;;;;;;;4151560;34;20182;-62
2022/05/18 13:00:46;;;;;;;3.55;1.87;;;;;;;;;;4163894;34;20570;-59
2022/05/18 13:03:11;;;;;;;2.70;2.10;;;;;;;;;;4163970;34;20141;-62
2022/05/18 13:05:43;;;;;;;5.75;2.37;;;;;;;;;;4163793;34;20540;-62
2022/05/18 13:08:33;;;;;;;6.70;3.00;;;;;;;;;;4151393;34;20122;-62
2022/05/18 13:11:13;;;;;;;2.60;1.90;;;;;;;;;;4159620;34;20130;-61
2022/05/18 13:14:01;;;;;;;4.22;1.80;;;;;;;;;;4164002;34;20513;-61
2022/05/18 13:16:39;;;;;;;6.28;1.73;;;;;;;;;;4164138;34;20118;-62
2022/05/18 13:19:14;;;;;;;2.10;1.90;;;;;;;;;;4164309;34;20126;-62
2022/05/18 13:22:01;;;;;;;1.62;1.48;;;;;;;;;;4163969;34;20119;-62
2022/05/18 13:24:38;;;;;;;3.92;1.77;;;;;;;;;;4163443;34;20106;-62
2022/05/18 13:27:11;;;;;;;3.85;2.53;;;;;;;;;;4151161;34;20202;-61
2022/05/18 13:29:38;;;;;;;2.22;1.90;;;;;;;;;;4164010;34;20150;-62
2022/05/18 13:32:07;;;;;;;3.03;1.90;;;;;;;;;;4163687;34;20194;-62
2022/05/18 13:34:57;;;;;;;4.22;1.87;;;;;;;;;;4163437;34;20223;-62
2022/05/18 13:37:24;;;;;;;2.80;1.42;;;;;;;;;;4163979;34;20466;-63
2022/05/18 13:39:50;;;;;;;1.92;1.60;;;;;;;;;;4163646;34;20137;-62
2022/05/18 13:42:22;;;;;;;2.65;1.50;;;;;;;;;;4163866;34;20106;-62
2022/05/18 13:44:52;;;;;;;7.97;1.80;;;;;;;;;;4163606;34;20123;-63
2022/05/18 13:47:25;;;;;;;2.62;1.85;;;;;;;;;;4151209;34;20174;-62
2022/05/18 13:49:51;;;;;;;3.15;1.77;;;;;;;;;;4151113;34;20186;-63
2022/05/18 13:52:22;;;;;;;1.70;1.60;;;;;;;;;;4150926;34;20134;-63
2022/05/18 13:54:52;;;;;;;3.37;1.85;;;;;;;;;;4150961;34;20560;-63
2022/05/18 13:57:20;;;;;;;6.95;2.10;;;;;;;;;;4163593;34;20125;-62
2022/05/18 13:59:55;;;;;;;3.25;2.03;;;;;;;;;;4139874;34;20218;-62
2022/05/18 14:02:23;;;;;;;3.23;1.60;;;;;;;;;;4151012;34;20103;-63
2022/05/18 14:04:58;;;;;;;4.65;2.50;;;;;;;;;;4150808;34;20142;-62
2022/05/18 14:07:27;;;;;;;3.12;2.00;;;;;;;;;;4163291;34;20213;-62
2022/05/18 14:09:53;;;;;;;4.85;2.28;;;;;;;;;;4163574;34;20497;-62
2022/05/18 14:12:22;;;;;;;2.20;2.00;;;;;;;;;;4163372;34;20592;-60
2022/05/18 14:14:52;;;;;;;3.45;2.12;;;;;;;;;;4163331;34;20118;-62
2022/05/18 14:17:22;;;;;;;2.25;1.95;;;;;;;;;;4163209;34;20118;-61
2022/05/18 14:19:52;;;;;;;2.70;2.10;;;;;;;;;;4150884;34;20495;-61
2022/05/18 14:22:19;;;;;;;6.53;2.62;;;;;;;;;;4163328;34;20099;-62
2022/05/18 14:24:57;;;;;;;3.28;2.62;;;;;;;;;;4150607;34;20109;-62
2022/05/18 14:27:29;;;;;;;6.97;2.22;;;;;;;;;;4163165;34;20124;-62
2022/05/18 14:29:57;;;;;;;5.03;2.25;;;;;;;;;;4163276;34;20582;-61
2022/05/18 14:32:34;;;;;;;6.22;2.83;;;;;;;;;;4150513;34;20210;-62
2022/05/18 14:35:02;;;;;;;2.70;2.50;;;;;;;;;;4149864;34;20524;-60
2022/05/18 14:37:34;;;;;;;2.92;2.45;;;;;;;;;;4163173;34;20285;-61
2022/05/18 14:40:03;;;;;;;3.67;2.50;;;;;;;;;;4163030;34;20090;-60
2022/05/18 14:42:30;;;;;;;4.47;2.42;;;;;;;;;;4150454;34;20186;-60
2022/05/18 14:45:11;;;;;;;2.75;2.55;;;;;;;;;;4150368;34;20185;-62
2022/05/18 14:47:46;;;;;;;4.00;2.80;;;;;;;;;;4162994;34;20186;-61
2022/05/18 14:50:28;;;;;;;3.20;2.90;;;;;;;;;;4163087;34;20199;-61
2022/05/18 14:53:00;;;;;;;3.62;3.03;;;;;;;;;;4163079;34;20700;-62
2022/05/18 14:55:39;;;;;;;8.18;2.97;;;;;;;;;;4163254;34;20099;-62
2022/05/18 14:58:05;;;;;;;3.22;2.72;;;;;;;;;;4150399;34;20592;-60
2022/05/18 15:00:36;;;;;;;4.22;2.87;;;;;;;;;;4150553;34;20214;-61
2022/05/18 15:03:09;;;;;;;3.92;2.87;;;;;;;;;;4162775;34;20107;-62
2022/05/18 15:05:38;;;;;;;6.75;3.70;;;;;;;;;;4162763;34;20632;-63
2022/05/18 15:08:10;;;;;;;4.68;3.10;;;;;;;;;;4139200;34;20106;-60
2022/05/18 15:10:51;;;;;;;7.47;3.53;;;;;;;;;;4162765;34;20452;-63
2022/05/18 15:13:17;;;;;;;7.78;3.53;;;;;;;;;;4150461;34;20193;-62
2022/05/18 15:15:55;;;;;;;3.83;2.33;;;;;;;;;;4162991;34;20221;-63
2022/05/18 15:18:34;;;;;;;3.42;2.47;;;;;;;;;;4163025;34;20106;-63
2022/05/18 15:21:20;;;;;;;3.10;2.80;;;;;;;;;;4162722;34;20189;-62
2022/05/18 15:23:51;;;;;;;8.50;3.17;;;;;;;;;;4162782;34;20099;-61
2022/05/18 15:26:41;;;;;;;4.30;3.17;;;;;;;;;;4159979;34;20138;-61
2022/05/18 15:29:24;;;;;;;3.47;2.75;;;;;;;;;;4134469;34;20133;-62
2022/05/18 15:31:56;;;;;;;4.85;3.33;;;;;;;;;;4149168;34;20114;-61
2022/05/18 15:34:28;;;;;;;5.28;3.37;;;;;;;;;;4149169;34;20099;-60
2022/05/18 15:36:54;;;;;;;4.28;2.90;;;;;;;;;;4149859;34;20134;-61
2022/05/18 15:39:20;;;;;;;7.32;3.00;;;;;;;;;;4162725;34;20097;-61
2022/05/18 15:41:47;;;;;;;4.37;2.90;;;;;;;;;;4162420;34;20099;-62
2022/05/18 15:44:14;;;;;;;5.03;3.05;;;;;;;;;;4149958;34;20594;-63
2022/05/18 15:46:44;;;;;;;3.97;2.97;;;;;;;;;;4163203;34;20118;-63
2022/05/18 15:49:15;;;;;;;6.32;4.15;;;;;;;;;;4164915;34;20199;-61